createdAt,value
2018-01-13T00:02:21.494Z,97792.13
2018-01-13T00:04:49.175Z,97791.30
2018-01-13T00:07:16.832Z,97789.98
2018-01-13T00:09:44.485Z,97791.63
2018-01-13T00:12:12.169Z,97788.28
2018-01-13T00:14:39.863Z,97789.09
2018-01-13T00:17:07.529Z,97787.05
2018-01-13T00:19:35.212Z,97790.86
2018-01-13T00:22:02.869Z,97782.02
2018-01-13T00:24:30.535Z,97783.72
2018-01-13T00:26:58.258Z,97789.12
2018-01-13T00:29:25.925Z,97782.84
2018-01-13T00:31:53.560Z,97785.77
2018-01-13T00:34:21.424Z,97783.66
2018-01-13T00:36:49.101Z,97785.41
2018-01-13T00:39:16.783Z,97777.88
2018-01-13T00:41:44.467Z,97777.88
2018-01-13T00:44:12.137Z,97778.64
2018-01-13T00:46:39.825Z,97778.24
2018-01-13T00:49:07.487Z,97778.64
2018-01-13T00:51:35.116Z,97778.31
2018-01-13T00:54:03.575Z,97772.80
2018-01-13T00:56:31.227Z,97780.75
2018-01-13T00:58:58.895Z,97781.66
2018-01-13T01:01:26.548Z,97783.84
2018-01-13T01:03:54.159Z,97783.41
2018-01-13T01:06:22.599Z,97786.67
2018-01-13T01:08:51.899Z,97781.26
2018-01-13T01:11:19.604Z,97782.02
2018-01-13T01:13:48.034Z,97778.24
2018-01-13T01:16:15.713Z,97777.81
2018-01-13T01:18:43.401Z,97769.84
2018-01-13T01:21:13.701Z,97776.44
2018-01-13T01:23:41.351Z,97777.63
2018-01-13T01:26:08.979Z,97773.34
2018-01-13T01:28:36.642Z,97774.59
2018-01-13T01:31:04.312Z,97767.53
2018-01-13T01:33:31.971Z,97771.27
2018-01-13T01:35:59.628Z,97771.67
2018-01-13T01:38:27.327Z,97771.27
2018-01-13T01:40:56.883Z,97765.39
2018-01-13T01:43:24.628Z,97763.27
2018-01-13T01:45:52.262Z,97758.99
2018-01-13T01:48:27.317Z,97757.72
2018-01-13T01:50:55.871Z,97760.23
2018-01-13T01:53:23.545Z,97762.73
2018-01-13T01:55:51.373Z,97762.23
2018-01-13T01:58:20.130Z,97763.87
2018-01-13T02:00:47.840Z,97763.48
2018-01-13T02:03:15.477Z,97762.17
2018-01-13T02:05:43.171Z,97761.28
2018-01-13T02:08:10.801Z,97758.29
2018-01-13T02:10:38.564Z,97762.47
2018-01-13T02:13:06.205Z,97761.03
2018-01-13T02:15:33.866Z,97762.60
2018-01-13T02:18:01.552Z,97768.42
2018-01-13T02:20:29.171Z,97763.47
2018-01-13T02:22:56.847Z,97766.42
2018-01-13T02:25:24.469Z,97770.94
2018-01-13T02:27:52.153Z,97765.04
2018-01-13T02:30:19.792Z,97767.98
2018-01-13T02:32:47.489Z,97764.61
2018-01-13T02:35:15.156Z,97764.15
2018-01-13T02:37:44.202Z,97765.77
2018-01-13T02:40:12.954Z,97762.82
2018-01-13T02:42:42.349Z,97759.08
2018-01-13T02:45:10.128Z,97763.16
2018-01-13T02:47:37.800Z,97758.98
2018-01-13T02:50:05.510Z,97759.01
2018-01-13T02:52:33.205Z,97752.36
2018-01-13T02:55:00.859Z,97746.86
2018-01-13T02:57:29.246Z,97756.72
2018-01-13T02:59:56.963Z,97755.84
2018-01-13T03:02:24.631Z,97759.92
2018-01-13T03:04:52.354Z,97753.59
2018-01-13T03:07:20.091Z,97753.59
2018-01-13T03:09:47.764Z,97750.69
2018-01-13T03:12:15.386Z,97752.33
2018-01-13T03:14:43.049Z,97748.52
2018-01-13T03:17:10.842Z,97747.31
2018-01-13T03:19:38.470Z,97747.33
2018-01-13T03:22:06.180Z,97751.51
2018-01-13T03:24:33.872Z,97757.34
2018-01-13T03:27:01.536Z,97753.14
2018-01-13T03:29:30.941Z,97748.01
2018-01-13T03:31:58.700Z,97757.52
2018-01-13T03:34:26.364Z,97749.42
2018-01-13T03:36:54.861Z,97744.77
2018-01-13T03:39:24.204Z,97743.91
2018-01-13T03:41:51.852Z,97739.64
2018-01-13T03:44:19.542Z,97736.16
2018-01-13T03:46:47.199Z,97735.48
2018-01-13T03:49:14.869Z,97735.77
2018-01-13T03:51:42.550Z,97734.44
2018-01-13T03:54:10.221Z,97722.66
2018-01-13T03:56:37.930Z,97727.18
2018-01-13T03:59:05.584Z,97716.70
2018-01-13T04:01:34.080Z,97718.62
2018-01-13T04:04:01.736Z,97721.39
2018-01-13T04:06:29.461Z,97716.36
2018-01-13T04:08:57.388Z,97717.61
2018-01-13T04:11:25.152Z,97715.43
2018-01-13T04:13:53.792Z,97717.50
2018-01-13T04:16:21.572Z,97717.98
2018-01-13T04:18:49.192Z,97714.48
2018-01-13T04:21:16.868Z,97712.63
2018-01-13T04:23:44.490Z,97705.11
2018-01-13T04:26:12.154Z,97700.56
2018-01-13T04:28:39.946Z,97704.31
2018-01-13T04:31:09.336Z,97697.59
2018-01-13T04:33:37.010Z,97703.88
2018-01-13T04:36:05.398Z,97704.31
2018-01-13T04:38:33.024Z,97706.31
2018-01-13T04:41:00.652Z,97702.94
2018-01-13T04:43:28.340Z,97705.37
2018-01-13T04:45:55.972Z,97702.86
2018-01-13T04:48:23.658Z,97705.80
2018-01-13T04:50:52.926Z,97703.73
2018-01-13T04:53:21.496Z,97701.23
2018-01-13T04:55:49.285Z,97700.21
2018-01-13T04:58:16.938Z,97706.70
2018-01-13T05:00:44.604Z,97705.50
2018-01-13T05:03:12.253Z,97708.89
2018-01-13T05:05:40.007Z,97708.89
2018-01-13T05:08:07.630Z,97712.70
2018-01-13T05:10:37.052Z,97712.22
2018-01-13T05:13:05.016Z,97716.41
2018-01-13T05:15:32.662Z,97706.75
2018-01-13T05:18:00.300Z,97717.64
2018-01-13T05:20:28.042Z,97710.96
2018-01-13T05:22:55.738Z,97719.42
2018-01-13T05:25:23.374Z,97717.30
2018-01-13T05:27:51.888Z,97718.17
2018-01-13T05:30:19.556Z,97714.39
2018-01-13T05:32:47.184Z,97713.16
2018-01-13T05:35:14.872Z,97715.66
2018-01-13T05:37:43.360Z,97718.66
2018-01-13T05:40:11.014Z,97718.98
2018-01-13T05:42:38.636Z,97720.59
2018-01-13T05:45:06.300Z,97728.94
2018-01-13T05:47:33.930Z,97722.29
2018-01-13T05:50:01.820Z,97723.92
2018-01-13T05:52:29.541Z,97729.80
2018-01-13T05:54:57.170Z,97733.56
2018-01-13T05:57:24.822Z,97733.58
2018-01-13T05:59:52.456Z,97728.24
2018-01-13T06:02:20.132Z,97734.89
2018-01-13T06:04:47.776Z,97735.25
2018-01-13T06:07:15.433Z,97737.34
2018-01-13T06:09:43.078Z,97733.56
2018-01-13T06:12:10.753Z,97737.75
2018-01-13T06:14:38.389Z,97728.50
2018-01-13T06:17:06.091Z,97728.94
2018-01-13T06:19:35.520Z,97729.37
2018-01-13T06:22:03.186Z,97736.09
2018-01-13T06:24:31.013Z,97735.33
2018-01-13T06:26:58.584Z,97732.38
2018-01-13T06:29:26.247Z,97732.38
2018-01-13T06:31:54.065Z,97730.31
2018-01-13T06:34:22.534Z,97727.38
2018-01-13T06:36:50.171Z,97724.07
2018-01-13T06:39:17.976Z,97719.06
2018-01-13T06:41:48.544Z,97727.83
2018-01-13T06:44:16.249Z,97726.25
2018-01-13T06:46:44.653Z,97717.91
2018-01-13T06:49:12.655Z,97723.74
2018-01-13T06:51:40.315Z,97720.36
2018-01-13T06:54:07.957Z,97714.92
2018-01-13T06:56:35.618Z,97719.56
2018-01-13T06:59:03.245Z,97712.92
2018-01-13T07:01:31.007Z,97713.80
2018-01-13T07:03:58.659Z,97714.23
2018-01-13T07:06:27.065Z,97714.54
2018-01-13T07:08:54.870Z,97716.61
2018-01-13T07:11:23.354Z,97716.30
2018-01-13T07:13:51.013Z,97713.11
2018-01-13T07:16:18.786Z,97721.45
2018-01-13T07:18:46.447Z,97720.64
2018-01-13T07:21:14.494Z,97720.19
2018-01-13T07:23:42.403Z,97708.93
2018-01-13T07:26:10.179Z,97711.48
2018-01-13T07:28:40.405Z,97713.27
2018-01-13T07:31:08.871Z,97715.47
2018-01-13T07:33:36.645Z,97709.62
2018-01-13T07:36:04.321Z,97710.45
2018-01-13T07:38:31.980Z,97707.56
2018-01-13T07:40:59.747Z,97699.30
2018-01-13T07:43:27.453Z,97704.39
2018-01-13T07:45:55.884Z,97707.77
2018-01-13T07:48:23.531Z,97705.72
2018-01-13T07:50:51.331Z,97709.09
2018-01-13T07:53:21.691Z,97707.91
2018-01-13T07:55:49.447Z,97713.00
2018-01-13T07:58:17.237Z,97708.92
2018-01-13T08:00:44.899Z,97705.29
2018-01-13T08:03:12.539Z,97704.59
2018-01-13T08:05:40.975Z,97702.19
2018-01-13T08:08:08.779Z,97701.88
2018-01-13T08:10:37.767Z,97699.44
2018-01-13T08:13:05.639Z,97696.16
2018-01-13T08:15:34.120Z,97701.13
2018-01-13T08:18:01.849Z,97702.64
2018-01-13T08:20:29.699Z,97707.49
2018-01-13T08:22:57.369Z,97702.19
2018-01-13T08:25:25.069Z,97710.64
2018-01-13T08:27:52.813Z,97707.89
2018-01-13T08:30:20.517Z,97700.55
2018-01-13T08:32:48.296Z,97699.43
2018-01-13T08:35:17.862Z,97699.11
2018-01-13T08:37:45.550Z,97700.07
2018-01-13T08:40:14.050Z,97702.27
2018-01-13T08:42:41.719Z,97702.00
2018-01-13T08:45:10.213Z,97703.27
2018-01-13T08:47:38.689Z,97696.30
2018-01-13T08:50:06.455Z,97695.81
2018-01-13T08:52:34.376Z,97700.06
2018-01-13T08:55:03.115Z,97696.23
2018-01-13T08:57:30.885Z,97699.70
2018-01-13T08:59:58.547Z,97698.15
2018-01-13T09:02:27.608Z,97698.06
2018-01-13T09:04:57.973Z,97693.05
2018-01-13T09:07:25.724Z,97696.48
2018-01-13T09:09:53.458Z,97695.48
2018-01-13T09:12:21.294Z,97696.39
2018-01-13T09:14:49.005Z,97704.52
2018-01-13T09:17:16.650Z,97701.72
2018-01-13T09:19:46.063Z,97705.09
2018-01-13T09:22:13.839Z,97700.84
2018-01-13T09:24:43.801Z,97698.34
2018-01-13T09:27:11.577Z,97692.41
2018-01-13T09:29:39.255Z,97701.45
2018-01-13T09:32:11.523Z,97701.85
2018-01-13T09:34:39.217Z,97696.45
2018-01-13T09:37:07.656Z,97696.52
2018-01-13T09:39:35.321Z,97693.33
2018-01-13T09:42:03.904Z,97702.52
2018-01-13T09:44:31.600Z,97696.64
2018-01-13T09:47:00.256Z,97691.00
2018-01-13T09:49:27.972Z,97688.54
2018-01-13T09:51:57.022Z,97687.92
2018-01-13T09:54:25.417Z,97673.42
2018-01-13T09:56:54.886Z,97684.33
2018-01-13T09:59:22.581Z,97676.55
2018-01-13T10:01:52.060Z,97672.84
2018-01-13T10:04:19.760Z,97671.41
2018-01-13T10:06:48.232Z,97673.11
2018-01-13T10:09:15.908Z,97672.59
2018-01-13T10:11:46.335Z,97669.91
2018-01-13T10:14:14.258Z,97669.14
2018-01-13T10:16:44.880Z,97663.33
2018-01-13T10:19:12.554Z,97663.38
2018-01-13T10:21:40.236Z,97659.86
2018-01-13T10:24:08.654Z,97659.98
2018-01-13T10:26:36.305Z,97656.22
2018-01-13T10:29:04.020Z,97656.28
2018-01-13T10:31:31.671Z,97660.23
2018-01-13T10:33:59.508Z,97652.97
2018-01-13T10:36:27.161Z,97656.41
2018-01-13T10:38:54.816Z,97653.41
2018-01-13T10:41:22.486Z,97657.53
2018-01-13T10:43:50.186Z,97661.80
2018-01-13T10:46:20.684Z,97649.82
2018-01-13T10:48:48.400Z,97653.10
2018-01-13T10:51:16.124Z,97653.52
2018-01-13T10:53:43.828Z,97650.45
2018-01-13T10:56:11.541Z,97648.00
2018-01-13T10:58:39.207Z,97646.74
2018-01-13T11:01:09.941Z,97639.05
2018-01-13T11:03:38.399Z,97640.98
2018-01-13T11:06:06.116Z,97635.95
2018-01-13T11:08:34.628Z,97639.66
2018-01-13T11:11:02.272Z,97630.52
2018-01-13T11:13:30.859Z,97626.55
2018-01-13T11:15:58.504Z,97625.02
2018-01-13T11:18:26.251Z,97623.34
2018-01-13T11:20:54.678Z,97618.26
2018-01-13T11:23:22.380Z,97611.22
2018-01-13T11:25:50.094Z,97614.36
2018-01-13T11:28:17.832Z,97614.80
2018-01-13T11:30:45.588Z,97611.96
2018-01-13T11:33:13.381Z,97611.75
2018-01-13T11:35:41.046Z,97613.07
2018-01-13T11:38:09.966Z,97607.12
2018-01-13T11:40:37.647Z,97598.44
2018-01-13T11:43:05.327Z,97599.81
2018-01-13T11:45:33.030Z,97604.11
2018-01-13T11:48:01.455Z,97596.20
2018-01-13T11:50:29.225Z,97596.31
2018-01-13T11:52:56.926Z,97599.15
2018-01-13T11:55:24.588Z,97591.87
2018-01-13T11:57:52.239Z,97591.06
2018-01-13T12:00:19.900Z,97594.06
2018-01-13T12:02:47.682Z,97586.34
2018-01-13T12:05:15.512Z,97584.55
2018-01-13T12:07:44.445Z,97587.01
2018-01-13T12:10:14.624Z,97576.97
2018-01-13T12:12:42.425Z,97576.45
2018-01-13T12:15:12.817Z,97577.66
2018-01-13T12:17:40.510Z,97573.14
2018-01-13T12:20:08.361Z,97569.48
2018-01-13T12:22:36.011Z,97570.94
2018-01-13T12:25:04.430Z,97568.86
2018-01-13T12:27:32.248Z,97552.52
2018-01-13T12:30:00.162Z,97561.17
2018-01-13T12:32:27.996Z,97555.72
2018-01-13T12:34:58.471Z,97563.12
2018-01-13T12:37:26.153Z,97553.40
2018-01-13T12:39:53.853Z,97555.46
2018-01-13T12:42:21.625Z,97556.84
2018-01-13T12:44:50.900Z,97556.52
2018-01-13T12:47:18.699Z,97561.75
2018-01-13T12:49:46.474Z,97558.74
2018-01-13T12:52:14.184Z,97556.98
2018-01-13T12:54:43.610Z,97552.33
2018-01-13T12:57:13.125Z,97555.05
2018-01-13T12:59:40.866Z,97542.56
2018-01-13T13:02:10.281Z,97546.37
2018-01-13T13:04:38.027Z,97554.55
2018-01-13T13:07:05.710Z,97554.42
2018-01-13T13:09:33.384Z,97553.50
2018-01-13T13:12:01.090Z,97552.55
2018-01-13T13:14:28.872Z,97553.58
2018-01-13T13:16:57.282Z,97548.88
2018-01-13T13:19:24.989Z,97552.00
2018-01-13T13:21:52.685Z,97557.80
2018-01-13T13:24:20.369Z,97552.78
2018-01-13T13:26:48.216Z,97552.28
2018-01-13T13:29:15.880Z,97549.16
2018-01-13T13:31:46.743Z,97557.59
2018-01-13T13:34:14.426Z,97552.35
2018-01-13T13:36:42.102Z,97554.80
2018-01-13T13:39:11.608Z,97555.99
2018-01-13T13:41:39.380Z,97559.42
2018-01-13T13:44:07.136Z,97547.70
2018-01-13T13:46:35.717Z,97555.16
2018-01-13T13:49:03.377Z,97554.22
2018-01-13T13:51:31.170Z,97559.23
2018-01-13T13:53:58.784Z,97550.02
2018-01-13T13:56:26.429Z,97556.23
2018-01-13T13:58:55.814Z,97554.55
2018-01-13T14:01:28.711Z,97552.78
2018-01-13T14:03:51.345Z,97550.27
2018-01-13T14:06:19.019Z,97550.21
2018-01-13T14:08:46.962Z,97552.55
2018-01-13T14:11:14.636Z,97555.73
2018-01-13T14:13:43.317Z,97544.45
2018-01-13T14:16:10.983Z,97548.77
2018-01-13T14:18:39.567Z,97548.60
2018-01-13T14:21:07.307Z,97549.22
2018-01-13T14:23:34.983Z,97555.98
2018-01-13T14:26:05.223Z,97554.34
2018-01-13T14:28:32.883Z,97554.72
2018-01-13T14:31:00.566Z,97561.89
2018-01-13T14:33:28.463Z,97569.02
2018-01-13T14:35:56.102Z,97561.94
2018-01-13T14:38:23.814Z,97570.41
2018-01-13T14:40:52.231Z,97558.25
2018-01-13T14:43:20.896Z,97559.11
2018-01-13T14:45:48.590Z,97559.93
2018-01-13T14:48:16.289Z,97559.86
2018-01-13T14:50:44.736Z,97555.62
2018-01-13T14:53:15.373Z,97553.72
2018-01-13T14:55:43.112Z,97554.41
2018-01-13T14:58:10.952Z,97551.98
2018-01-13T15:00:38.571Z,97554.55
2018-01-13T15:03:08.485Z,97550.70
2018-01-13T15:05:37.200Z,97552.28
2018-01-13T15:08:04.925Z,97552.61
2018-01-13T15:10:34.388Z,97546.83
2018-01-13T15:13:02.131Z,97547.53
2018-01-13T15:15:29.914Z,97555.85
2018-01-13T15:17:57.609Z,97554.46
2018-01-13T15:20:25.327Z,97557.23
2018-01-13T15:22:53.261Z,97554.97
2018-01-13T15:25:21.601Z,97549.45
2018-01-13T15:27:49.273Z,97556.54
2018-01-13T15:30:16.946Z,97552.33
2018-01-13T15:32:44.618Z,97557.84
2018-01-13T15:35:13.088Z,97550.52
2018-01-13T15:37:42.500Z,97556.40
2018-01-13T15:43:07.646Z,97553.25
2018-01-13T15:45:36.042Z,97555.33
2018-01-13T15:48:05.547Z,97553.52
2018-01-13T15:50:41.106Z,97560.16
2018-01-13T15:53:12.322Z,97556.65
2018-01-13T15:58:44.740Z,97558.08
2018-01-13T16:01:20.436Z,97557.64
2018-01-13T16:03:51.906Z,97560.96
2018-01-13T16:09:00.750Z,97572.83
2018-01-13T16:11:29.926Z,97570.44
2018-01-13T16:13:58.014Z,97574.94
2018-01-13T16:16:31.115Z,97576.14
2018-01-13T16:19:01.833Z,97577.39
2018-01-13T16:21:32.307Z,97571.11
2018-01-13T16:24:03.622Z,97565.25
2018-01-13T16:26:35.844Z,97568.98
2018-01-13T16:29:10.454Z,97571.49
2018-01-13T16:31:39.775Z,97570.63
2018-01-13T16:36:50.695Z,97573.18
2018-01-13T16:39:21.638Z,97581.15
2018-01-13T16:41:53.159Z,97584.20
2018-01-13T16:47:05.014Z,97586.25
2018-01-13T16:52:07.185Z,97578.94
2018-01-13T16:54:43.914Z,97578.42
2018-01-13T16:57:14.347Z,97577.48
2018-01-13T16:59:45.262Z,97576.25
2018-01-13T17:05:04.879Z,97584.11
2018-01-13T17:07:32.757Z,97583.63
2018-01-13T17:10:00.504Z,97581.91
2018-01-13T17:12:33.325Z,97583.05
2018-01-13T17:15:03.976Z,97583.91
2018-01-13T17:17:33.155Z,97578.03
2018-01-13T17:20:01.140Z,97574.66
2018-01-13T17:22:28.869Z,97576.66
2018-01-13T17:24:56.896Z,97575.79
2018-01-13T17:27:31.599Z,97576.66
2018-01-13T17:29:59.757Z,97582.55
2018-01-13T17:32:27.669Z,97585.11
2018-01-13T17:34:55.526Z,97582.17
2018-01-13T17:37:25.725Z,97575.89
2018-01-13T17:39:57.170Z,97581.23
2018-01-13T17:42:28.986Z,97572.27
2018-01-13T17:44:58.208Z,97573.36
2018-01-13T17:47:26.133Z,97571.04
2018-01-13T17:49:56.154Z,97572.67
2018-01-13T17:52:25.915Z,97576.73
2018-01-13T17:54:54.838Z,97579.23
2018-01-13T17:57:23.444Z,97575.61
2018-01-13T17:59:52.966Z,97575.66
2018-01-13T18:02:22.754Z,97577.17
2018-01-13T18:04:55.453Z,97578.42
2018-01-13T18:07:23.423Z,97578.95
2018-01-13T18:09:51.281Z,97583.47
2018-01-13T18:12:21.297Z,97579.27
2018-01-13T18:14:49.686Z,97574.27
2018-01-13T18:17:17.545Z,97577.63
2018-01-13T18:19:47.774Z,97580.00
2018-01-13T18:24:50.847Z,97586.71
2018-01-13T18:27:21.323Z,97576.31
2018-01-13T18:29:55.175Z,97573.00
2018-01-13T18:32:25.929Z,97571.77
2018-01-13T18:34:58.469Z,97566.61
2018-01-13T18:37:29.582Z,97563.53
2018-01-13T18:39:58.240Z,97576.15
2018-01-13T18:42:26.138Z,97582.77
2018-01-13T18:44:56.692Z,97575.13
2018-01-13T18:47:26.715Z,97578.75
2018-01-13T18:49:57.134Z,97579.55
2018-01-13T18:52:26.781Z,97583.77
2018-01-13T18:54:56.567Z,97582.92
2018-01-13T18:57:25.014Z,97578.81
2018-01-13T18:59:53.115Z,97574.17
2018-01-13T19:02:26.338Z,97580.06
2018-01-13T19:04:56.460Z,97569.55
2018-01-13T19:07:27.254Z,97560.66
2018-01-13T19:10:00.538Z,97559.56
2018-01-13T19:12:28.623Z,97563.38
2018-01-13T19:14:59.988Z,97561.25
2018-01-13T19:17:28.059Z,97556.77
2018-01-13T19:19:56.117Z,97563.95
2018-01-13T19:22:27.370Z,97554.63
2018-01-13T19:24:55.549Z,97552.92
2018-01-13T19:27:23.558Z,97554.92
2018-01-13T19:29:53.157Z,97554.41
2018-01-13T19:32:21.084Z,97562.25
2018-01-13T19:34:51.431Z,97567.53
2018-01-13T19:37:23.216Z,97563.42
2018-01-13T19:39:52.916Z,97570.34
2018-01-13T19:42:23.766Z,97571.13
2018-01-13T19:44:55.902Z,97570.69
2018-01-13T19:47:24.190Z,97560.38
2018-01-13T19:49:54.173Z,97563.31
2018-01-13T19:52:22.210Z,97549.64
2018-01-13T19:54:50.170Z,97552.95
2018-01-13T19:57:18.511Z,97554.95
2018-01-13T19:59:47.169Z,97544.89
2018-01-13T20:02:20.235Z,97546.14
2018-01-13T20:04:49.101Z,97544.22
2018-01-13T20:07:18.141Z,97540.45
2018-01-13T20:09:46.282Z,97542.16
2018-01-13T20:12:14.235Z,97542.52
2018-01-13T20:14:42.308Z,97541.50
2018-01-13T20:17:10.607Z,97539.07
2018-01-13T20:19:40.190Z,97541.95
2018-01-13T20:22:08.396Z,97539.56
2018-01-13T20:24:36.536Z,97535.38
2018-01-13T20:27:06.231Z,97541.19
2018-01-13T20:29:34.671Z,97540.19
2018-01-13T20:32:02.785Z,97538.64
2018-01-13T20:34:31.123Z,97537.52
2018-01-13T20:37:00.730Z,97535.14
2018-01-13T20:39:30.406Z,97537.27
2018-01-13T20:42:00.263Z,97532.16
2018-01-13T20:44:28.639Z,97528.46
2018-01-13T20:46:58.376Z,97527.16
2018-01-13T20:49:29.598Z,97526.27
2018-01-13T20:52:04.032Z,97526.57
2018-01-13T20:54:34.129Z,97524.63
2018-01-13T20:57:02.328Z,97534.33
2018-01-13T20:59:30.667Z,97530.52
2018-01-13T21:01:58.941Z,97529.96
2018-01-13T21:04:29.712Z,97532.00
2018-01-13T21:06:57.888Z,97529.88
2018-01-13T21:09:25.919Z,97536.57
2018-01-13T21:11:54.064Z,97540.02
2018-01-13T21:14:28.764Z,97540.61
2018-01-13T21:16:58.550Z,97540.19
2018-01-13T21:19:26.677Z,97535.11
2018-01-13T21:21:54.843Z,97525.47
2018-01-13T21:24:23.830Z,97520.85
2018-01-13T21:39:55.977Z,97512.84
2018-01-13T21:42:24.050Z,97508.78
2018-01-13T21:44:52.148Z,97511.97
2018-01-13T21:47:22.705Z,97511.61
2018-01-13T21:49:50.619Z,97510.55
2018-01-13T21:52:18.591Z,97513.50
2018-01-13T21:54:46.562Z,97512.41
2018-01-13T21:57:14.542Z,97515.16
2018-01-13T21:59:43.994Z,97511.31
2018-01-13T22:02:12.117Z,97513.95
2018-01-13T22:04:40.705Z,97508.24
2018-01-13T22:07:08.575Z,97501.99
2018-01-13T22:09:36.450Z,97506.97
2018-01-13T22:12:06.375Z,97512.06
2018-01-13T22:14:35.946Z,97512.86
2018-01-13T22:17:04.784Z,97509.13
2018-01-13T22:19:34.263Z,97511.63
2018-01-13T22:22:10.638Z,97507.05
2018-01-13T22:24:38.483Z,97507.42
2018-01-13T22:27:07.967Z,97508.24
2018-01-13T22:29:35.943Z,97506.41
2018-01-13T22:32:06.984Z,97509.16
2018-01-13T22:34:34.736Z,97503.83
2018-01-13T22:37:02.543Z,97498.39
2018-01-13T22:39:32.462Z,97495.46
2018-01-13T22:42:02.149Z,97490.74
2018-01-13T22:44:33.130Z,97482.38
2018-01-13T22:47:03.721Z,97481.58
2018-01-13T22:49:32.743Z,97480.26
2018-01-13T22:52:03.120Z,97477.40
2018-01-13T22:54:31.160Z,97475.41
2018-01-13T22:56:59.027Z,97472.89
2018-01-13T22:59:27.941Z,97478.42
2018-01-13T23:01:58.432Z,97476.96
2018-01-13T23:04:26.318Z,97473.34
2018-01-13T23:06:54.299Z,97474.16
2018-01-13T23:09:22.165Z,97466.73
2018-01-13T23:11:51.654Z,97468.27
2018-01-13T23:14:21.148Z,97467.41
2018-01-13T23:16:51.199Z,97463.34
2018-01-13T23:19:20.381Z,97450.42
2018-01-13T23:21:49.961Z,97454.11
2018-01-13T23:24:18.043Z,97446.23
2018-01-13T23:26:45.951Z,97442.34
2018-01-13T23:32:06.927Z,97432.77
2018-01-13T23:34:36.434Z,97436.03
2018-01-13T23:37:04.336Z,97436.03
2018-01-13T23:39:34.048Z,97431.55
2018-01-13T23:42:01.924Z,97426.11
2018-01-13T23:44:29.994Z,97427.42
2018-01-13T23:47:03.446Z,97426.55
2018-01-13T23:49:31.351Z,97432.77
2018-01-13T23:52:00.867Z,97426.91
2018-01-13T23:54:28.769Z,97431.55
2018-01-13T23:56:56.635Z,97426.91
2018-01-13T23:59:26.090Z,97431.16
